createdAt,value
2023-03-30T00:00:50.853Z,12.82
2023-03-30T00:05:57.287Z,13.98
2023-03-30T00:11:13.648Z,8.52
2023-03-30T00:16:15.546Z,10.20
2023-03-30T00:21:18.601Z,6.03
2023-03-30T00:26:20.872Z,12.90
2023-03-30T00:31:22.978Z,6.53
2023-03-30T00:36:25.115Z,11.63
2023-03-30T00:41:28.023Z,16.17
2023-03-30T00:46:31.973Z,9.73
2023-03-30T00:51:37.953Z,13.57
2023-03-30T00:56:40.211Z,12.63
2023-03-30T01:01:42.309Z,10.65
2023-03-30T01:06:46.713Z,10.55
2023-03-30T01:11:48.860Z,7.72
2023-03-30T01:17:16.584Z,10.70
2023-03-30T01:22:47.529Z,15.10
2023-03-30T01:28:26.965Z,10.13
2023-03-30T01:34:17.632Z,9.95
2023-03-30T01:39:38.201Z,10.85
2023-03-30T01:44:46.523Z,7.13
2023-03-30T01:50:13.608Z,13.40
2023-03-30T01:55:32.507Z,10.48
2023-03-30T02:00:38.453Z,13.73
2023-03-30T02:05:42.776Z,10.80
2023-03-30T02:10:46.893Z,15.30
2023-03-30T02:15:53.011Z,13.98
2023-03-30T02:20:58.843Z,18.88
2023-03-30T02:26:01.112Z,17.05
2023-03-30T02:31:04.826Z,10.93
2023-03-30T02:36:24.411Z,17.35
2023-03-30T02:41:40.402Z,10.40
2023-03-30T02:47:09.728Z,17.27
2023-03-30T02:52:23.432Z,20.75
2023-03-30T02:57:36.783Z,9.15
2023-03-30T03:02:43.851Z,14.77
2023-03-30T03:07:45.996Z,13.32
2023-03-30T03:12:48.114Z,17.23
2023-03-30T03:17:51.753Z,12.57
2023-03-30T03:22:53.867Z,15.98
2023-03-30T03:27:56.038Z,12.07
2023-03-30T03:32:58.114Z,13.15
2023-03-30T03:38:00.252Z,25.45
2023-03-30T03:43:02.042Z,19.55
2023-03-30T03:48:03.857Z,23.30
2023-03-30T03:53:05.697Z,19.13
2023-03-30T03:58:07.997Z,12.43
2023-03-30T04:03:09.928Z,23.08
2023-03-30T04:08:11.977Z,21.25
2023-03-30T04:13:14.112Z,20.30
2023-03-30T04:18:16.324Z,16.38
2023-03-30T04:23:22.237Z,23.60
2023-03-30T04:28:24.958Z,15.52
2023-03-30T04:33:26.930Z,23.40
2023-03-30T04:38:30.329Z,22.23
2023-03-30T04:43:32.058Z,13.63
2023-03-30T04:48:34.067Z,24.58
2023-03-30T04:53:36.412Z,21.05
2023-03-30T04:58:38.114Z,13.13
2023-03-30T05:03:40.156Z,13.50
2023-03-30T05:08:42.105Z,19.58
2023-03-30T05:13:43.987Z,27.52
2023-03-30T05:18:45.948Z,22.02
2023-03-30T05:23:48.085Z,19.88
2023-03-30T05:28:50.713Z,20.92
2023-03-30T05:33:52.815Z,19.85
2023-03-30T05:38:54.614Z,17.63
2023-03-30T05:43:56.361Z,20.15
2023-03-30T05:48:58.400Z,27.95
2023-03-30T05:54:01.260Z,20.27
2023-03-30T05:59:05.442Z,25.45
2023-03-30T06:04:08.200Z,18.00
2023-03-30T06:09:11.515Z,18.33
2023-03-30T06:14:13.541Z,26.30
2023-03-30T06:19:15.604Z,23.52
2023-03-30T06:24:18.734Z,22.88
2023-03-30T06:29:20.926Z,23.80
2023-03-30T06:34:24.051Z,24.67
2023-03-30T06:39:26.208Z,18.88
2023-03-30T06:44:28.088Z,11.77
2023-03-30T06:49:31.020Z,15.18
2023-03-30T06:54:33.071Z,18.90
2023-03-30T06:59:36.183Z,13.00
2023-03-30T07:04:38.630Z,15.13
2023-03-30T07:09:40.809Z,29.25
2023-03-30T07:14:42.594Z,19.63
2023-03-30T07:19:44.387Z,16.52
2023-03-30T07:24:46.075Z,32.72
2023-03-30T07:29:48.565Z,22.70
2023-03-30T07:34:50.362Z,26.77
2023-03-30T07:39:52.487Z,13.43
2023-03-30T07:44:54.484Z,26.10
2023-03-30T07:49:56.420Z,17.60
2023-03-30T07:54:58.555Z,21.52
2023-03-30T08:00:00.638Z,17.60
2023-03-30T08:05:02.994Z,19.40
2023-03-30T08:10:05.518Z,19.90
2023-03-30T08:15:08.431Z,14.68
2023-03-30T08:20:11.738Z,27.42
2023-03-30T08:25:13.756Z,12.10
2023-03-30T08:30:16.598Z,12.13
2023-03-30T08:35:18.383Z,14.55
2023-03-30T08:40:21.058Z,10.93
2023-03-30T08:45:23.521Z,13.75
2023-03-30T08:50:31.979Z,12.20
2023-03-30T08:55:57.226Z,15.90
2023-03-30T09:01:18.176Z,7.78
2023-03-30T09:06:35.066Z,12.18
2023-03-30T09:11:38.806Z,16.48
2023-03-30T09:16:54.174Z,9.13
2023-03-30T09:21:58.050Z,9.52
2023-03-30T09:27:29.146Z,6.82
2023-03-30T09:32:45.493Z,15.32
2023-03-30T09:37:47.532Z,12.55
2023-03-30T09:43:47.922Z,9.50
2023-03-30T09:48:50.532Z,7.60
2023-03-30T09:54:02.447Z,8.05
2023-03-30T09:59:37.980Z,4.80
2023-03-30T10:04:56.934Z,11.55
2023-03-30T10:10:14.197Z,6.10
2023-03-30T10:15:18.281Z,6.18
2023-03-30T10:21:01.781Z,6.72
2023-03-30T10:26:04.803Z,9.20
2023-03-30T10:31:16.420Z,6.40
2023-03-30T10:36:19.551Z,10.93
2023-03-30T10:41:23.839Z,9.27
2023-03-30T10:46:25.731Z,8.40
2023-03-30T10:51:44.324Z,13.05
2023-03-30T10:56:51.933Z,6.97
2023-03-30T11:02:13.486Z,8.50
2023-03-30T11:07:30.037Z,7.77
2023-03-30T11:12:39.474Z,6.45
2023-03-30T11:18:03.775Z,7.88
2023-03-30T11:23:14.727Z,9.40
2023-03-30T11:28:23.707Z,9.02
2023-03-30T11:34:00.877Z,10.88
2023-03-30T11:39:04.808Z,7.57
2023-03-30T11:44:10.889Z,5.72
2023-03-30T11:49:43.481Z,6.90
2023-03-30T11:55:03.609Z,6.65
2023-03-30T12:00:35.983Z,8.25
2023-03-30T12:05:44.465Z,5.07
2023-03-30T12:10:51.639Z,6.40
2023-03-30T12:15:53.975Z,6.55
2023-03-30T12:21:13.148Z,5.18
2023-03-30T12:26:34.664Z,7.45
2023-03-30T12:31:55.906Z,5.60
2023-03-30T12:37:16.097Z,5.50
2023-03-30T12:42:35.143Z,7.93
2023-03-30T12:47:58.990Z,5.68
2023-03-30T12:53:30.685Z,8.85
2023-03-30T12:59:06.856Z,7.93
2023-03-30T13:04:24.034Z,7.63
2023-03-30T13:09:26.854Z,12.15
2023-03-30T13:14:46.527Z,10.73
2023-03-30T13:20:31.022Z,6.57
2023-03-30T13:25:39.512Z,10.05
2023-03-30T13:30:44.998Z,11.93
2023-03-30T13:36:04.552Z,10.32
2023-03-30T13:41:12.776Z,8.93
2023-03-30T13:46:22.796Z,8.35
2023-03-30T13:51:27.928Z,10.45
2023-03-30T13:56:36.015Z,6.47
2023-03-30T14:01:40.316Z,8.13
2023-03-30T14:06:50.033Z,10.30
2023-03-30T14:12:00.859Z,9.32
2023-03-30T14:17:13.256Z,6.97
2023-03-30T14:22:28.679Z,8.38
2023-03-30T14:27:40.942Z,5.70
2023-03-30T14:32:43.803Z,6.35
2023-03-30T14:37:51.795Z,7.80
2023-03-30T14:42:54.089Z,4.15
2023-03-30T14:47:56.565Z,5.32
2023-03-30T14:52:58.782Z,2.35
2023-03-30T14:58:01.632Z,3.92
2023-03-30T15:03:05.190Z,6.18
2023-03-30T15:08:16.802Z,8.27
2023-03-30T15:13:32.609Z,9.10
2023-03-30T15:18:36.913Z,5.63
2023-03-30T15:23:41.979Z,5.15
2023-03-30T15:28:47.998Z,4.70
2023-03-30T15:33:55.142Z,3.80
2023-03-30T15:39:01.509Z,4.18
2023-03-30T15:44:17.342Z,3.15
2023-03-30T15:49:23.331Z,3.03
2023-03-30T15:54:45.242Z,3.22
2023-03-30T15:59:51.712Z,3.80
2023-03-30T16:04:54.984Z,2.90
2023-03-30T16:09:57.771Z,4.78
2023-03-30T16:14:59.627Z,11.18
2023-03-30T16:20:02.591Z,7.20
2023-03-30T16:25:05.982Z,1.83
2023-03-30T16:30:17.841Z,4.35
2023-03-30T16:35:20.024Z,10.57
2023-03-30T16:40:27.736Z,8.73
2023-03-30T16:45:30.092Z,5.82
2023-03-30T16:50:46.512Z,6.40
2023-03-30T16:55:48.885Z,4.32
2023-03-30T17:00:53.800Z,4.55
2023-03-30T17:05:56.194Z,3.13
2023-03-30T17:11:01.669Z,1.52
2023-03-30T17:16:03.480Z,7.70
2023-03-30T17:21:06.729Z,3.47
2023-03-30T17:26:15.189Z,4.70
2023-03-30T17:31:22.321Z,4.60
2023-03-30T17:36:26.157Z,7.70
2023-03-30T17:41:27.922Z,6.30
2023-03-30T17:46:30.645Z,4.22
2023-03-30T17:51:32.596Z,8.20
2023-03-30T17:56:34.717Z,2.15
2023-03-30T18:01:36.495Z,3.78
2023-03-30T18:06:38.635Z,6.00
2023-03-30T18:11:40.733Z,8.98
2023-03-30T18:16:43.780Z,14.50
2023-03-30T18:21:45.914Z,7.38
2023-03-30T18:26:47.642Z,6.97
2023-03-30T18:31:49.915Z,7.60
2023-03-30T18:36:52.311Z,10.27
2023-03-30T18:41:54.568Z,1.88
2023-03-30T18:46:56.737Z,12.73
2023-03-30T18:51:58.659Z,4.72
2023-03-30T18:57:00.783Z,3.90
2023-03-30T19:02:02.950Z,3.53
2023-03-30T19:07:05.725Z,6.40
2023-03-30T19:12:11.631Z,4.65
2023-03-30T19:17:15.912Z,3.30
2023-03-30T19:22:17.911Z,11.80
2023-03-30T19:27:19.935Z,4.47
2023-03-30T19:32:21.769Z,7.50
2023-03-30T19:37:23.878Z,3.55
2023-03-30T19:42:26.681Z,6.55
2023-03-30T19:47:30.865Z,5.35
2023-03-30T19:52:32.827Z,5.03
2023-03-30T19:57:37.975Z,3.65
2023-03-30T20:02:41.277Z,3.35
2023-03-30T20:07:44.639Z,9.30
2023-03-30T20:12:47.800Z,8.05
2023-03-30T20:17:49.971Z,3.47
2023-03-30T20:22:54.012Z,9.25
2023-03-30T20:27:55.781Z,5.75
2023-03-30T20:33:07.414Z,7.40
2023-03-30T20:38:10.413Z,7.93
2023-03-30T20:43:12.431Z,3.05
2023-03-30T20:48:27.703Z,7.00
2023-03-30T20:53:30.965Z,13.23
2023-03-30T20:58:33.075Z,10.95
2023-03-30T21:03:35.390Z,16.45
2023-03-30T21:08:37.286Z,10.27
2023-03-30T21:13:39.164Z,5.70
2023-03-30T21:18:40.965Z,7.50
2023-03-30T21:23:44.299Z,7.55
2023-03-30T21:28:46.891Z,9.93
2023-03-30T21:33:49.026Z,4.10
2023-03-30T21:38:51.064Z,11.43
2023-03-30T21:43:53.110Z,7.95
2023-03-30T21:48:54.934Z,10.60
2023-03-30T21:53:57.961Z,8.50
2023-03-30T21:59:00.595Z,4.60
2023-03-30T22:04:05.483Z,3.55
2023-03-30T22:09:08.108Z,6.80
2023-03-30T22:14:10.204Z,5.13
2023-03-30T22:19:12.216Z,7.80
2023-03-30T22:24:14.074Z,8.82
2023-03-30T22:29:16.289Z,19.83
2023-03-30T22:34:18.452Z,11.38
2023-03-30T22:39:20.098Z,6.07
2023-03-30T22:44:22.375Z,18.65
2023-03-30T22:49:25.073Z,8.25
2023-03-30T22:54:26.761Z,7.03
2023-03-30T22:59:30.877Z,7.43
2023-03-30T23:04:34.473Z,7.35
2023-03-30T23:09:37.291Z,5.80
2023-03-30T23:14:39.369Z,5.15
2023-03-30T23:19:41.177Z,10.45
2023-03-30T23:24:43.513Z,8.25
2023-03-30T23:29:45.784Z,6.28
2023-03-30T23:34:47.625Z,7.10
2023-03-30T23:39:49.795Z,8.20
2023-03-30T23:44:52.279Z,5.38
2023-03-30T23:49:54.444Z,8.20
2023-03-30T23:55:02.135Z,4.13
